sensor_id;sensor_type;location;lat;lon;timestamp;pressure;altitude;pressure_sealevel;temperature;humidity
33845;BME280;20145;43.118;25.694;2024-01-06T00:01:40;99172.16;;;10.87;63.82
33845;BME280;20145;43.118;25.694;2024-01-06T00:04:08;99194.44;;;10.91;62.50
33845;BME280;20145;43.118;25.694;2024-01-06T00:06:42;99183.44;;;10.80;64.74
33845;BME280;20145;43.118;25.694;2024-01-06T00:09:24;99197.13;;;10.85;66.37
33845;BME280;20145;43.118;25.694;2024-01-06T00:12:02;99164.81;;;10.62;66.98
33845;BME280;20145;43.118;25.694;2024-01-06T00:14:28;99189.63;;;10.69;66.74
33845;BME280;20145;43.118;25.694;2024-01-06T00:17:29;99201.69;;;10.70;67.94
33845;BME280;20145;43.118;25.694;2024-01-06T00:19:58;99177.94;;;10.48;68.64
33845;BME280;20145;43.118;25.694;2024-01-06T00:22:32;99198.59;;;10.47;68.72
33845;BME280;20145;43.118;25.694;2024-01-06T00:28:21;99150.75;;;10.24;62.21
33845;BME280;20145;43.118;25.694;2024-01-06T00:31:08;99178.22;;;10.84;57.75
33845;BME280;20145;43.118;25.694;2024-01-06T00:33:36;99174.50;;;11.01;55.24
33845;BME280;20145;43.118;25.694;2024-01-06T00:39:23;99135.59;;;11.55;53.15
33845;BME280;20145;43.118;25.694;2024-01-06T00:42:05;99136.63;;;11.88;52.37
33845;BME280;20145;43.118;25.694;2024-01-06T00:44:46;99137.91;;;12.09;52.23
33845;BME280;20145;43.118;25.694;2024-01-06T00:47:11;99140.88;;;12.30;50.74
33845;BME280;20145;43.118;25.694;2024-01-06T00:49:38;99126.94;;;12.35;51.11
33845;BME280;20145;43.118;25.694;2024-01-06T00:52:05;99122.34;;;12.48;50.18
33845;BME280;20145;43.118;25.694;2024-01-06T00:54:33;99115.97;;;12.61;51.18
33845;BME280;20145;43.118;25.694;2024-01-06T00:57:00;99109.06;;;12.60;49.20
33845;BME280;20145;43.118;25.694;2024-01-06T00:59:26;99129.34;;;12.77;48.60
33845;BME280;20145;43.118;25.694;2024-01-06T01:01:52;99136.81;;;12.89;47.93
33845;BME280;20145;43.118;25.694;2024-01-06T01:04:19;99117.31;;;12.76;47.85
33845;BME280;20145;43.118;25.694;2024-01-06T01:06:50;99127.50;;;12.82;48.90
33845;BME280;20145;43.118;25.694;2024-01-06T01:09:22;99142.59;;;12.99;47.91
33845;BME280;20145;43.118;25.694;2024-01-06T01:11:49;99142.16;;;12.83;51.36
33845;BME280;20145;43.118;25.694;2024-01-06T01:14:15;99115.00;;;12.30;52.65
33845;BME280;20145;43.118;25.694;2024-01-06T01:16:53;99151.34;;;12.25;53.79
33845;BME280;20145;43.118;25.694;2024-01-06T01:19:26;99138.84;;;12.05;53.97
33845;BME280;20145;43.118;25.694;2024-01-06T01:28:19;99145.69;;;11.66;56.24
33845;BME280;20145;43.118;25.694;2024-01-06T01:30:52;99149.31;;;11.58;56.74
33845;BME280;20145;43.118;25.694;2024-01-06T01:33:32;99133.31;;;11.39;56.65
33845;BME280;20145;43.118;25.694;2024-01-06T01:36:10;99145.50;;;11.33;58.29
33845;BME280;20145;43.118;25.694;2024-01-06T01:38:38;99135.47;;;11.18;59.95
33845;BME280;20145;43.118;25.694;2024-01-06T01:41:08;99115.06;;;11.04;60.45
33845;BME280;20145;43.118;25.694;2024-01-06T01:43:38;99109.41;;;10.85;61.77
33845;BME280;20145;43.118;25.694;2024-01-06T01:49:06;99096.38;;;10.41;60.59
33845;BME280;20145;43.118;25.694;2024-01-06T01:51:34;99094.56;;;10.46;59.11
33845;BME280;20145;43.118;25.694;2024-01-06T01:54:03;99093.56;;;10.55;58.55
33845;BME280;20145;43.118;25.694;2024-01-06T01:56:30;99101.97;;;10.66;59.02
33845;BME280;20145;43.118;25.694;2024-01-06T01:59:01;99096.88;;;10.63;58.96
33845;BME280;20145;43.118;25.694;2024-01-06T02:01:29;99095.16;;;10.62;59.94
33845;BME280;20145;43.118;25.694;2024-01-06T02:03:55;99112.28;;;10.66;59.27
33845;BME280;20145;43.118;25.694;2024-01-06T02:06:21;99115.47;;;10.81;58.14
33845;BME280;20145;43.118;25.694;2024-01-06T02:08:47;99094.81;;;10.82;58.66
33845;BME280;20145;43.118;25.694;2024-01-06T02:11:14;99100.81;;;10.84;58.55
33845;BME280;20145;43.118;25.694;2024-01-06T02:13:40;99098.22;;;10.84;58.49
33845;BME280;20145;43.118;25.694;2024-01-06T02:16:05;99110.13;;;10.91;58.78
33845;BME280;20145;43.118;25.694;2024-01-06T02:18:33;99092.94;;;10.90;58.15
33845;BME280;20145;43.118;25.694;2024-01-06T02:21:01;99091.22;;;10.91;58.95
33845;BME280;20145;43.118;25.694;2024-01-06T02:23:39;99087.78;;;10.89;59.08
33845;BME280;20145;43.118;25.694;2024-01-06T02:26:04;99069.03;;;10.81;60.50
33845;BME280;20145;43.118;25.694;2024-01-06T02:28:31;99044.25;;;10.72;64.17
33845;BME280;20145;43.118;25.694;2024-01-06T02:31:02;99051.44;;;10.55;62.28
33845;BME280;20145;43.118;25.694;2024-01-06T02:33:30;99060.22;;;10.44;60.80
33845;BME280;20145;43.118;25.694;2024-01-06T02:39:19;99064.56;;;10.42;59.99
33845;BME280;20145;43.118;25.694;2024-01-06T02:41:53;99062.00;;;10.42;59.63
33845;BME280;20145;43.118;25.694;2024-01-06T02:44:32;99058.53;;;10.43;59.02
33845;BME280;20145;43.118;25.694;2024-01-06T02:50:10;99058.91;;;10.70;58.42
33845;BME280;20145;43.118;25.694;2024-01-06T02:52:43;99035.91;;;10.59;57.25
33845;BME280;20145;43.118;25.694;2024-01-06T02:55:36;99062.22;;;10.78;58.68
33845;BME280;20145;43.118;25.694;2024-01-06T02:58:12;99056.28;;;10.71;57.90
33845;BME280;20145;43.118;25.694;2024-01-06T03:00:41;99044.16;;;10.77;58.88
33845;BME280;20145;43.118;25.694;2024-01-06T03:03:07;99015.06;;;10.68;57.88
33845;BME280;20145;43.118;25.694;2024-01-06T03:05:34;99042.22;;;10.89;57.00
33845;BME280;20145;43.118;25.694;2024-01-06T03:08:04;99030.28;;;10.82;56.71
33845;BME280;20145;43.118;25.694;2024-01-06T03:10:35;99054.38;;;10.83;57.76
33845;BME280;20145;43.118;25.694;2024-01-06T03:13:08;99053.09;;;10.59;57.94
33845;BME280;20145;43.118;25.694;2024-01-06T03:15:34;99042.78;;;10.59;58.42
33845;BME280;20145;43.118;25.694;2024-01-06T03:18:01;99063.97;;;10.75;57.56
33845;BME280;20145;43.118;25.694;2024-01-06T03:20:46;99043.44;;;10.70;58.68
33845;BME280;20145;43.118;25.694;2024-01-06T03:23:12;99043.59;;;10.61;58.66
33845;BME280;20145;43.118;25.694;2024-01-06T03:25:39;99033.53;;;10.47;58.65
33845;BME280;20145;43.118;25.694;2024-01-06T03:31:14;99058.44;;;10.48;59.49
33845;BME280;20145;43.118;25.694;2024-01-06T03:40:18;99055.28;;;10.32;59.15
33845;BME280;20145;43.118;25.694;2024-01-06T03:42:48;99069.63;;;10.47;57.98
33845;BME280;20145;43.118;25.694;2024-01-06T03:48:37;99031.47;;;10.66;59.16
33845;BME280;20145;43.118;25.694;2024-01-06T03:51:15;99044.19;;;10.75;58.08
33845;BME280;20145;43.118;25.694;2024-01-06T03:54:14;99063.72;;;10.90;57.83
33845;BME280;20145;43.118;25.694;2024-01-06T04:00:02;99040.22;;;11.02;56.98
33845;BME280;20145;43.118;25.694;2024-01-06T04:02:37;99061.50;;;11.15;57.03
33845;BME280;20145;43.118;25.694;2024-01-06T04:08:30;99046.72;;;11.22;57.61
33845;BME280;20145;43.118;25.694;2024-01-06T04:11:29;99069.81;;;11.29;57.79
33845;BME280;20145;43.118;25.694;2024-01-06T04:13:54;99054.84;;;11.03;58.30
33845;BME280;20145;43.118;25.694;2024-01-06T04:16:34;99070.22;;;11.08;58.57
33845;BME280;20145;43.118;25.694;2024-01-06T04:25:30;99065.06;;;10.63;61.94
33845;BME280;20145;43.118;25.694;2024-01-06T04:28:16;99077.28;;;10.53;62.00
33845;BME280;20145;43.118;25.694;2024-01-06T04:33:38;99068.09;;;10.37;62.01
33845;BME280;20145;43.118;25.694;2024-01-06T04:39:49;99087.00;;;10.36;63.26
33845;BME280;20145;43.118;25.694;2024-01-06T04:48:51;99078.78;;;10.12;65.15
33845;BME280;20145;43.118;25.694;2024-01-06T04:51:37;99090.09;;;10.02;64.76
33845;BME280;20145;43.118;25.694;2024-01-06T04:54:34;99087.56;;;10.00;66.37
33845;BME280;20145;43.118;25.694;2024-01-06T05:00:28;99098.56;;;10.10;65.68
33845;BME280;20145;43.118;25.694;2024-01-06T05:02:59;99061.91;;;9.91;66.57
33845;BME280;20145;43.118;25.694;2024-01-06T05:05:34;99090.00;;;10.08;66.33
33845;BME280;20145;43.118;25.694;2024-01-06T05:08:17;99088.34;;;10.04;66.11
33845;BME280;20145;43.118;25.694;2024-01-06T05:10:55;99046.53;;;9.85;66.63
33845;BME280;20145;43.118;25.694;2024-01-06T05:13:24;99074.81;;;9.90;67.69
33845;BME280;20145;43.118;25.694;2024-01-06T05:18:47;99089.28;;;9.98;68.51
33845;BME280;20145;43.118;25.694;2024-01-06T05:24:32;99094.69;;;9.80;68.84
33845;BME280;20145;43.118;25.694;2024-01-06T05:30:34;99093.94;;;9.72;69.88
33845;BME280;20145;43.118;25.694;2024-01-06T05:33:03;99074.31;;;9.65;69.45
33845;BME280;20145;43.118;25.694;2024-01-06T05:35:47;99082.81;;;9.70;69.44
33845;BME280;20145;43.118;25.694;2024-01-06T05:38:13;99090.56;;;9.68;69.86
33845;BME280;20145;43.118;25.694;2024-01-06T05:47:07;99098.50;;;9.54;70.76
33845;BME280;20145;43.118;25.694;2024-01-06T05:49:36;99065.06;;;9.51;70.31
33845;BME280;20145;43.118;25.694;2024-01-06T05:52:01;99076.09;;;9.58;70.50
33845;BME280;20145;43.118;25.694;2024-01-06T05:54:32;99085.56;;;9.59;70.05
33845;BME280;20145;43.118;25.694;2024-01-06T05:56:59;99077.78;;;9.62;69.77
33845;BME280;20145;43.118;25.694;2024-01-06T05:59:26;99066.41;;;9.75;69.76
33845;BME280;20145;43.118;25.694;2024-01-06T06:01:52;99065.41;;;9.87;68.63
33845;BME280;20145;43.118;25.694;2024-01-06T06:04:17;99074.63;;;10.02;68.17
33845;BME280;20145;43.118;25.694;2024-01-06T06:06:44;98995.38;;;9.60;69.52
33845;BME280;20145;43.118;25.694;2024-01-06T06:09:10;99070.31;;;10.02;69.82
33845;BME280;20145;43.118;25.694;2024-01-06T06:11:36;99081.25;;;10.17;68.33
33845;BME280;20145;43.118;25.694;2024-01-06T06:14:02;99040.13;;;10.11;68.06
33845;BME280;20145;43.118;25.694;2024-01-06T06:16:30;99044.25;;;10.21;67.94
33845;BME280;20145;43.118;25.694;2024-01-06T06:18:57;99063.75;;;10.40;68.74
33845;BME280;20145;43.118;25.694;2024-01-06T06:21:27;99068.59;;;10.59;65.70
33845;BME280;20145;43.118;25.694;2024-01-06T06:23:55;99054.88;;;10.55;67.11
33845;BME280;20145;43.118;25.694;2024-01-06T06:26:27;99047.06;;;10.58;65.27
33845;BME280;20145;43.118;25.694;2024-01-06T06:28:54;99069.97;;;10.78;65.80
33845;BME280;20145;43.118;25.694;2024-01-06T06:31:19;99051.00;;;10.79;66.48
33845;BME280;20145;43.118;25.694;2024-01-06T06:33:45;99044.03;;;10.83;63.81
33845;BME280;20145;43.118;25.694;2024-01-06T06:36:11;99052.84;;;11.16;61.36
33845;BME280;20145;43.118;25.694;2024-01-06T06:38:37;99051.13;;;11.16;63.25
33845;BME280;20145;43.118;25.694;2024-01-06T06:41:03;99073.50;;;11.18;63.38
33845;BME280;20145;43.118;25.694;2024-01-06T06:43:35;99064.94;;;11.14;62.90
33845;BME280;20145;43.118;25.694;2024-01-06T06:46:03;99070.63;;;11.31;61.75
33845;BME280;20145;43.118;25.694;2024-01-06T06:48:30;99063.53;;;11.41;62.42
33845;BME280;20145;43.118;25.694;2024-01-06T06:51:16;99072.66;;;11.57;63.90
33845;BME280;20145;43.118;25.694;2024-01-06T06:53:42;99056.34;;;11.55;62.43
33845;BME280;20145;43.118;25.694;2024-01-06T06:56:08;99048.47;;;11.61;59.98
33845;BME280;20145;43.118;25.694;2024-01-06T06:58:35;99036.25;;;11.68;59.61
33845;BME280;20145;43.118;25.694;2024-01-06T07:01:01;99029.41;;;11.66;60.34
33845;BME280;20145;43.118;25.694;2024-01-06T07:03:26;99037.16;;;11.66;61.21
33845;BME280;20145;43.118;25.694;2024-01-06T07:05:52;99055.03;;;11.76;63.00
33845;BME280;20145;43.118;25.694;2024-01-06T07:08:19;99032.22;;;11.55;64.26
33845;BME280;20145;43.118;25.694;2024-01-06T07:10:44;99042.56;;;11.55;62.39
33845;BME280;20145;43.118;25.694;2024-01-06T07:13:10;99045.00;;;11.61;63.90
33845;BME280;20145;43.118;25.694;2024-01-06T07:15:36;99008.38;;;11.44;63.97
33845;BME280;20145;43.118;25.694;2024-01-06T07:18:01;98991.31;;;11.36;61.10
33845;BME280;20145;43.118;25.694;2024-01-06T07:23:49;99049.84;;;12.15;58.83
33845;BME280;20145;43.118;25.694;2024-01-06T07:26:20;99041.06;;;12.22;58.94
33845;BME280;20145;43.118;25.694;2024-01-06T07:28:49;99050.53;;;12.22;60.00
33845;BME280;20145;43.118;25.694;2024-01-06T07:31:16;99037.66;;;12.20;58.61
33845;BME280;20145;43.118;25.694;2024-01-06T07:33:43;99017.38;;;12.03;58.83
33845;BME280;20145;43.118;25.694;2024-01-06T07:36:08;99020.47;;;12.18;58.48
33845;BME280;20145;43.118;25.694;2024-01-06T07:38:34;98987.38;;;11.96;57.62
33845;BME280;20145;43.118;25.694;2024-01-06T07:41:12;99026.66;;;12.11;57.94
33845;BME280;20145;43.118;25.694;2024-01-06T07:43:41;99021.63;;;12.06;59.05
33845;BME280;20145;43.118;25.694;2024-01-06T07:46:09;99018.22;;;12.04;58.72
33845;BME280;20145;43.118;25.694;2024-01-06T07:48:48;98966.31;;;11.76;57.58
33845;BME280;20145;43.118;25.694;2024-01-06T07:54:05;98994.91;;;12.05;57.99
33845;BME280;20145;43.118;25.694;2024-01-06T07:56:35;99008.00;;;12.34;57.66
33845;BME280;20145;43.118;25.694;2024-01-06T08:05:32;99001.53;;;13.12;53.93
33845;BME280;20145;43.118;25.694;2024-01-06T08:08:11;99018.84;;;13.42;54.10
33845;BME280;20145;43.118;25.694;2024-01-06T08:17:25;99016.47;;;13.90;51.72
33845;BME280;20145;43.118;25.694;2024-01-06T08:19:57;99024.66;;;14.04;51.72
33845;BME280;20145;43.118;25.694;2024-01-06T08:25:45;99022.25;;;14.25;50.82
33845;BME280;20145;43.118;25.694;2024-01-06T08:28:30;99025.97;;;14.43;48.82
33845;BME280;20145;43.118;25.694;2024-01-06T08:33:56;99010.38;;;14.69;48.40
33845;BME280;20145;43.118;25.694;2024-01-06T08:39:43;99004.19;;;14.97;48.25
33845;BME280;20145;43.118;25.694;2024-01-06T08:42:17;99007.38;;;15.05;48.36
33845;BME280;20145;43.118;25.694;2024-01-06T08:44:47;98992.16;;;15.18;48.27
33845;BME280;20145;43.118;25.694;2024-01-06T08:47:18;98973.84;;;15.21;48.20
33845;BME280;20145;43.118;25.694;2024-01-06T08:50:07;98985.47;;;15.34;48.63
33845;BME280;20145;43.118;25.694;2024-01-06T08:52:51;98976.88;;;15.32;49.81
33845;BME280;20145;43.118;25.694;2024-01-06T08:58:56;98986.03;;;15.43;49.94
33845;BME280;20145;43.118;25.694;2024-01-06T09:04:45;98970.97;;;15.51;50.07
33845;BME280;20145;43.118;25.694;2024-01-06T09:13:37;98944.56;;;15.39;52.05
33845;BME280;20145;43.118;25.694;2024-01-06T09:16:04;98947.75;;;15.46;52.79
33845;BME280;20145;43.118;25.694;2024-01-06T09:19:02;98947.16;;;15.39;53.13
33845;BME280;20145;43.118;25.694;2024-01-06T09:21:33;98928.53;;;15.50;53.99
33845;BME280;20145;43.118;25.694;2024-01-06T09:27:20;98921.97;;;15.62;53.25
33845;BME280;20145;43.118;25.694;2024-01-06T09:32:50;98910.03;;;15.80;54.75
33845;BME280;20145;43.118;25.694;2024-01-06T09:35:17;98911.88;;;15.76;54.90
33845;BME280;20145;43.118;25.694;2024-01-06T09:37:42;98874.47;;;15.58;55.18
33845;BME280;20145;43.118;25.694;2024-01-06T09:40:11;98904.47;;;15.88;55.97
33845;BME280;20145;43.118;25.694;2024-01-06T09:42:40;98892.00;;;15.96;55.61
33845;BME280;20145;43.118;25.694;2024-01-06T09:45:07;98879.47;;;16.05;56.18
33845;BME280;20145;43.118;25.694;2024-01-06T09:47:34;98890.94;;;16.20;56.34
33845;BME280;20145;43.118;25.694;2024-01-06T09:50:02;98899.09;;;16.13;56.43
33845;BME280;20145;43.118;25.694;2024-01-06T09:52:32;98848.97;;;15.89;55.52
33845;BME280;20145;43.118;25.694;2024-01-06T09:55:12;98889.47;;;16.15;56.60
33845;BME280;20145;43.118;25.694;2024-01-06T09:57:41;98846.28;;;15.90;56.47
33845;BME280;20145;43.118;25.694;2024-01-06T10:00:24;98862.06;;;16.06;56.56
33845;BME280;20145;43.118;25.694;2024-01-06T10:06:16;98867.84;;;16.33;56.53
33845;BME280;20145;43.118;25.694;2024-01-06T10:08:55;98845.31;;;16.32;56.20
33845;BME280;20145;43.118;25.694;2024-01-06T10:14:39;98849.50;;;16.55;56.07
33845;BME280;20145;43.118;25.694;2024-01-06T10:17:09;98851.25;;;16.55;56.07
33845;BME280;20145;43.118;25.694;2024-01-06T10:23:04;98790.91;;;16.64;54.42
33845;BME280;20145;43.118;25.694;2024-01-06T10:25:31;98823.72;;;16.87;54.10
33845;BME280;20145;43.118;25.694;2024-01-06T10:28:23;98839.00;;;16.76;55.01
33845;BME280;20145;43.118;25.694;2024-01-06T10:30:52;98809.94;;;16.66;54.85
33845;BME280;20145;43.118;25.694;2024-01-06T10:33:38;98822.03;;;16.67;55.08
33845;BME280;20145;43.118;25.694;2024-01-06T10:36:17;98812.81;;;16.60;55.18
33845;BME280;20145;43.118;25.694;2024-01-06T10:45:28;98802.69;;;16.54;55.75
33845;BME280;20145;43.118;25.694;2024-01-06T10:47:55;98788.75;;;16.36;56.35
33845;BME280;20145;43.118;25.694;2024-01-06T10:50:23;98794.31;;;16.28;56.05
33845;BME280;20145;43.118;25.694;2024-01-06T10:52:50;98786.06;;;16.37;56.70
33845;BME280;20145;43.118;25.694;2024-01-06T10:55:18;98787.53;;;16.43;56.88
33845;BME280;20145;43.118;25.694;2024-01-06T10:57:46;98796.97;;;16.64;56.85
33845;BME280;20145;43.118;25.694;2024-01-06T11:00:13;98763.22;;;16.44;56.49
33845;BME280;20145;43.118;25.694;2024-01-06T11:02:39;98788.13;;;16.49;57.11
33845;BME280;20145;43.118;25.694;2024-01-06T11:05:05;98733.28;;;16.15;57.27
33845;BME280;20145;43.118;25.694;2024-01-06T11:07:36;98789.31;;;16.42;58.36
33845;BME280;20145;43.118;25.694;2024-01-06T11:12:35;98767.69;;;16.40;58.54
33845;BME280;20145;43.118;25.694;2024-01-06T11:15:00;98741.81;;;16.18;57.70
33845;BME280;20145;43.118;25.694;2024-01-06T11:17:55;98789.94;;;16.47;58.28
33845;BME280;20145;43.118;25.694;2024-01-06T11:20:26;98782.06;;;16.49;57.85
33845;BME280;20145;43.118;25.694;2024-01-06T11:22:53;98774.53;;;16.43;58.70
33845;BME280;20145;43.118;25.694;2024-01-06T11:25:20;98776.22;;;16.44;58.57
33845;BME280;20145;43.118;25.694;2024-01-06T11:27:48;98759.28;;;16.35;58.98
33845;BME280;20145;43.118;25.694;2024-01-06T11:30:27;98737.09;;;16.26;58.96
33845;BME280;20145;43.118;25.694;2024-01-06T11:32:56;98737.19;;;16.25;59.39
33845;BME280;20145;43.118;25.694;2024-01-06T11:35:27;98737.22;;;16.23;59.15
33845;BME280;20145;43.118;25.694;2024-01-06T11:38:01;98762.22;;;16.27;59.83
33845;BME280;20145;43.118;25.694;2024-01-06T11:40:35;98713.88;;;16.03;60.49
33845;BME280;20145;43.118;25.694;2024-01-06T11:45:29;98718.03;;;15.88;61.37
33845;BME280;20145;43.118;25.694;2024-01-06T11:48:01;98716.00;;;15.95;60.58
33845;BME280;20145;43.118;25.694;2024-01-06T11:50:30;98755.31;;;16.26;60.82
33845;BME280;20145;43.118;25.694;2024-01-06T11:52:58;98737.88;;;16.10;61.05
33845;BME280;20145;43.118;25.694;2024-01-06T11:55:27;98719.16;;;16.01;60.86
33845;BME280;20145;43.118;25.694;2024-01-06T11:58:02;98726.41;;;15.95;62.48
33845;BME280;20145;43.118;25.694;2024-01-06T12:00:29;98733.28;;;16.15;61.58
33845;BME280;20145;43.118;25.694;2024-01-06T12:02:57;98742.44;;;16.23;61.90
33845;BME280;20145;43.118;25.694;2024-01-06T12:05:29;98721.56;;;16.06;62.62
33845;BME280;20145;43.118;25.694;2024-01-06T12:07:59;98755.81;;;16.16;62.59
33845;BME280;20145;43.118;25.694;2024-01-06T12:10:28;98744.63;;;16.14;62.57
33845;BME280;20145;43.118;25.694;2024-01-06T12:13:02;98701.78;;;15.83;63.53
33845;BME280;20145;43.118;25.694;2024-01-06T12:15:30;98714.09;;;15.98;62.88
33845;BME280;20145;43.118;25.694;2024-01-06T12:17:57;98744.31;;;16.01;63.55
33845;BME280;20145;43.118;25.694;2024-01-06T12:20:25;98731.41;;;15.99;64.23
33845;BME280;20145;43.118;25.694;2024-01-06T12:22:54;98718.44;;;15.79;64.06
33845;BME280;20145;43.118;25.694;2024-01-06T12:25:38;98734.06;;;15.98;64.71
33845;BME280;20145;43.118;25.694;2024-01-06T12:28:05;98727.25;;;15.95;64.74
33845;BME280;20145;43.118;25.694;2024-01-06T12:30:33;98701.78;;;15.83;64.55
33845;BME280;20145;43.118;25.694;2024-01-06T12:33:02;98705.59;;;15.95;63.63
33845;BME280;20145;43.118;25.694;2024-01-06T12:35:29;98717.94;;;15.90;63.68
33845;BME280;20145;43.118;25.694;2024-01-06T12:38:27;98739.91;;;16.03;64.82
33845;BME280;20145;43.118;25.694;2024-01-06T12:41:04;98701.34;;;15.92;63.60
33845;BME280;20145;43.118;25.694;2024-01-06T12:43:31;98701.34;;;15.92;63.27
33845;BME280;20145;43.118;25.694;2024-01-06T12:46:01;98718.16;;;16.04;64.33
33845;BME280;20145;43.118;25.694;2024-01-06T12:48:33;98716.34;;;16.06;64.67
33845;BME280;20145;43.118;25.694;2024-01-06T12:51:16;98714.81;;;16.02;64.24
33845;BME280;20145;43.118;25.694;2024-01-06T12:53:55;98693.00;;;15.86;64.16
33845;BME280;20145;43.118;25.694;2024-01-06T12:56:22;98715.50;;;15.87;65.35
33845;BME280;20145;43.118;25.694;2024-01-06T12:59:17;98711.25;;;15.84;65.84
33845;BME280;20145;43.118;25.694;2024-01-06T13:01:49;98682.09;;;15.57;66.18
33845;BME280;20145;43.118;25.694;2024-01-06T13:04:16;98708.09;;;15.77;66.86
33845;BME280;20145;43.118;25.694;2024-01-06T13:06:45;98719.69;;;15.70;66.27
33845;BME280;20145;43.118;25.694;2024-01-06T13:09:33;98723.22;;;15.69;67.09
33845;BME280;20145;43.118;25.694;2024-01-06T13:12:02;98721.88;;;15.59;67.14
33845;BME280;20145;43.118;25.694;2024-01-06T13:14:28;98732.84;;;15.66;67.96
33845;BME280;20145;43.118;25.694;2024-01-06T13:16:55;98722.66;;;15.61;67.49
33845;BME280;20145;43.118;25.694;2024-01-06T13:19:20;98721.56;;;15.67;67.17
33845;BME280;20145;43.118;25.694;2024-01-06T13:21:46;98694.84;;;15.43;69.01
33845;BME280;20145;43.118;25.694;2024-01-06T13:24:12;98735.94;;;15.55;68.40
33845;BME280;20145;43.118;25.694;2024-01-06T13:26:38;98730.09;;;15.50;67.97
33845;BME280;20145;43.118;25.694;2024-01-06T13:29:11;98729.31;;;15.48;68.89
33845;BME280;20145;43.118;25.694;2024-01-06T13:31:36;98728.97;;;15.55;68.13
33845;BME280;20145;43.118;25.694;2024-01-06T13:34:06;98659.75;;;15.13;67.57
33845;BME280;20145;43.118;25.694;2024-01-06T13:36:31;98693.09;;;15.43;68.44
33845;BME280;20145;43.118;25.694;2024-01-06T13:38:57;98726.94;;;15.62;68.56
33845;BME280;20145;43.118;25.694;2024-01-06T13:41:26;98728.56;;;15.65;66.95
33845;BME280;20145;43.118;25.694;2024-01-06T13:43:52;98722.66;;;15.61;65.90
33845;BME280;20145;43.118;25.694;2024-01-06T13:46:17;98730.78;;;15.74;66.36
33845;BME280;20145;43.118;25.694;2024-01-06T13:48:43;98717.25;;;15.66;66.60
33845;BME280;20145;43.118;25.694;2024-01-06T13:51:10;98734.31;;;15.73;66.63
33845;BME280;20145;43.118;25.694;2024-01-06T13:53:36;98732.94;;;15.64;66.20
33845;BME280;20145;43.118;25.694;2024-01-06T13:56:04;98728.84;;;15.58;65.76
33845;BME280;20145;43.118;25.694;2024-01-06T13:58:29;98710.03;;;15.52;65.95
33845;BME280;20145;43.118;25.694;2024-01-06T14:00:56;98697.78;;;15.55;66.08
33845;BME280;20145;43.118;25.694;2024-01-06T14:03:23;98732.63;;;15.72;66.44
33845;BME280;20145;43.118;25.694;2024-01-06T14:05:49;98728.13;;;15.75;65.64
33845;BME280;20145;43.118;25.694;2024-01-06T14:08:21;98731.38;;;15.80;65.61
33845;BME280;20145;43.118;25.694;2024-01-06T14:10:53;98720.47;;;15.72;65.62
33845;BME280;20145;43.118;25.694;2024-01-06T14:13:20;98723.84;;;15.74;66.19
33845;BME280;20145;43.118;25.694;2024-01-06T14:15:45;98728.84;;;15.79;65.98
33845;BME280;20145;43.118;25.694;2024-01-06T14:18:13;98725.47;;;15.77;66.68
33845;BME280;20145;43.118;25.694;2024-01-06T14:20:41;98718.16;;;15.65;67.38
33845;BME280;20145;43.118;25.694;2024-01-06T14:23:19;98694.72;;;15.46;67.89
33845;BME280;20145;43.118;25.694;2024-01-06T14:25:45;98711.81;;;15.51;67.60
33845;BME280;20145;43.118;25.694;2024-01-06T14:31:35;98701.50;;;15.50;67.75
33845;BME280;20145;43.118;25.694;2024-01-06T14:37:22;98725.97;;;15.65;69.05
33845;BME280;20145;43.118;25.694;2024-01-06T14:40:09;98728.28;;;15.72;68.92
33845;BME280;20145;43.118;25.694;2024-01-06T14:42:39;98694.53;;;15.50;68.16
33845;BME280;20145;43.118;25.694;2024-01-06T14:45:17;98710.22;;;15.68;69.12
33845;BME280;20145;43.118;25.694;2024-01-06T14:51:13;98701.91;;;15.59;68.12
33845;BME280;20145;43.118;25.694;2024-01-06T14:53:53;98712.00;;;15.67;68.74
33845;BME280;20145;43.118;25.694;2024-01-06T14:59:23;98688.75;;;15.44;69.43
33845;BME280;20145;43.118;25.694;2024-01-06T15:01:50;98673.41;;;15.37;69.15
33845;BME280;20145;43.118;25.694;2024-01-06T15:04:31;98701.06;;;15.59;69.64
33845;BME280;20145;43.118;25.694;2024-01-06T15:07:23;98697.22;;;15.68;69.57
33845;BME280;20145;43.118;25.694;2024-01-06T15:10:06;98687.63;;;15.70;70.80
33845;BME280;20145;43.118;25.694;2024-01-06T15:15:56;98686.91;;;15.66;71.58
33845;BME280;20145;43.118;25.694;2024-01-06T15:22:02;98683.72;;;15.59;72.01
33845;BME280;20145;43.118;25.694;2024-01-06T15:24:32;98663.47;;;15.47;72.84
33845;BME280;20145;43.118;25.694;2024-01-06T15:27:01;98661.75;;;15.46;74.42
33845;BME280;20145;43.118;25.694;2024-01-06T15:29:32;98663.97;;;15.55;73.46
33845;BME280;20145;43.118;25.694;2024-01-06T15:32:22;98675.91;;;15.59;74.41
33845;BME280;20145;43.118;25.694;2024-01-06T15:37:53;98649.78;;;15.44;76.09
33845;BME280;20145;43.118;25.694;2024-01-06T15:40:20;98668.66;;;15.47;76.08
33845;BME280;20145;43.118;25.694;2024-01-06T15:43:04;98653.34;;;15.41;75.77
33845;BME280;20145;43.118;25.694;2024-01-06T15:45:42;98665.22;;;15.47;75.87
33845;BME280;20145;43.118;25.694;2024-01-06T15:48:26;98657.75;;;15.39;77.05
33845;BME280;20145;43.118;25.694;2024-01-06T15:53:56;98634.50;;;15.15;76.22
33845;BME280;20145;43.118;25.694;2024-01-06T15:56:36;98650.56;;;15.25;77.06
33845;BME280;20145;43.118;25.694;2024-01-06T15:59:39;98651.47;;;15.24;77.19
33845;BME280;20145;43.118;25.694;2024-01-06T16:02:05;98628.88;;;15.06;76.98
33845;BME280;20145;43.118;25.694;2024-01-06T16:07:52;98645.41;;;15.24;77.79
33845;BME280;20145;43.118;25.694;2024-01-06T16:10:37;98639.38;;;15.23;76.59
33845;BME280;20145;43.118;25.694;2024-01-06T16:16:28;98625.88;;;15.15;76.19